Time;durP1;ratioP1;P1;durP2;ratioP2;P2;SDS_P1;SDS_P2;PMS_P1;PMS_P2;Temp;Humidity;BMP_temperature;BMP_pressure;BME280_temperature;BME280_humidity;BME280_pressure;Samples;Min_cycle;Max_cycle;Signal;HPM_P1;HPM_P2
2022/11/04 00:00:46;;;;;;;24.70;15.27;;;14.70;99.90;;;;;;5107736;28;20027;-68
2022/11/04 00:03:11;;;;;;;21.63;14.43;;;14.80;97.70;;;;;;5107539;28;20024;-68
2022/11/04 00:05:37;;;;;;;24.48;15.40;;;14.80;89.50;;;;;;5104132;27;20050;-68
2022/11/04 00:13:31;;;;;;;22.60;15.07;;;15.00;45.20;;;;;;5114051;28;20046;-68
2022/11/04 00:18:44;;;;;;;22.05;15.35;;;15.00;33.40;;;;;;5109800;28;20477;-68
2022/11/04 00:29:22;;;;;;;21.20;15.50;;;15.20;22.60;;;;;;5113776;28;20055;-68
2022/11/04 00:34:31;;;;;;;16.85;12.90;;;15.20;20.90;;;;;;5113146;28;20042;-68
2022/11/04 00:36:58;;;;;;;15.18;11.80;;;15.10;20.10;;;;;;5114167;28;20055;-68
2022/11/04 00:39:24;;;;;;;17.25;12.02;;;15.10;19.80;;;;;;5112031;28;20069;-69
2022/11/04 00:41:49;;;;;;;13.15;9.27;;;15.20;18.70;;;;;;5110971;28;20056;-69
2022/11/04 00:44:15;;;;;;;10.85;7.53;;;15.10;18.00;;;;;;5111850;28;20035;-69
2022/11/04 00:46:40;;;;;;;10.90;8.18;;;15.20;17.50;;;;;;5095036;28;20104;-68
2022/11/04 00:49:06;;;;;;;8.15;5.50;;;15.20;16.70;;;;;;5115364;27;20408;-69
2022/11/04 00:51:32;;;;;;;6.15;5.28;;;15.10;16.50;;;;;;5107151;28;20031;-69
2022/11/04 00:53:57;;;;;;;4.72;4.30;;;15.20;15.60;;;;;;5096409;28;20484;-68
2022/11/04 00:56:23;;;;;;;5.68;3.55;;;15.10;15.30;;;;;;5103436;28;20146;-69
2022/11/04 00:58:49;;;;;;;5.57;4.07;;;15.10;14.70;;;;;;5093434;28;20157;-69
2022/11/04 01:01:16;;;;;;;5.30;4.35;;;15.10;13.80;;;;;;5113336;28;20028;-69
2022/11/04 01:03:43;;;;;;;4.22;3.50;;;15.20;13.80;;;;;;5105354;28;20019;-69
2022/11/04 01:06:08;;;;;;;7.85;4.68;;;15.10;14.50;;;;;;5105928;28;20382;-68
2022/11/04 01:08:34;;;;;;;10.63;4.88;;;15.00;15.20;;;;;;5093092;28;20195;-67
2022/11/04 01:11:04;;;;;;;5.10;4.30;;;15.00;31.50;;;;;;5106463;28;20031;-68
2022/11/04 01:13:30;;;;;;;6.15;4.25;;;15.00;99.90;;;;;;5101639;28;20024;-68
2022/11/04 01:16:00;;;;;;;6.88;4.30;;;14.90;99.90;;;;;;5108393;28;20020;-68
2022/11/04 01:18:26;;;;;;;5.80;4.65;;;14.90;99.90;;;;;;5104412;27;20039;-68
2022/11/04 01:20:52;;;;;;;5.70;3.85;;;14.90;99.90;;;;;;5093048;28;20032;-68
2022/11/04 01:23:17;;;;;;;6.60;4.43;;;14.90;99.90;;;;;;5113308;28;20028;-68
2022/11/04 01:25:43;;;;;;;4.22;3.78;;;14.90;99.90;;;;;;5112530;28;20078;-68
2022/11/04 01:28:09;;;;;;;6.43;4.13;;;14.80;99.90;;;;;;5113310;28;20016;-69
2022/11/04 01:30:37;;;;;;;3.72;3.33;;;14.80;99.90;;;;;;5112369;28;20024;-68
2022/11/04 01:33:03;;;;;;;4.22;3.15;;;14.70;99.90;;;;;;5109588;28;20024;-69
2022/11/04 01:35:30;;;;;;;4.07;3.08;;;14.80;99.90;;;;;;5104351;28;20038;-68
2022/11/04 01:37:57;;;;;;;3.80;2.50;;;14.80;99.90;;;;;;5112648;28;20410;-69
2022/11/04 01:40:23;;;;;;;4.15;3.38;;;14.70;99.90;;;;;;5110878;28;20031;-69
2022/11/04 01:42:48;;;;;;;4.15;3.17;;;14.50;71.80;;;;;;5112208;28;20076;-69
2022/11/04 01:45:17;;;;;;;5.28;3.33;;;14.60;65.00;;;;;;5111490;28;20119;-69
2022/11/04 01:47:47;;;;;;;3.80;3.40;;;14.50;56.60;;;;;;5112472;28;20032;-69
2022/11/04 01:50:18;;;;;;;3.67;3.25;;;14.60;66.70;;;;;;5111510;28;20499;-69
2022/11/04 01:52:56;;;;;;;4.60;4.05;;;14.60;62.50;;;;;;5112590;28;20491;-69
2022/11/04 01:55:30;;;;;;;6.07;5.22;;;14.60;59.00;;;;;;5092347;28;20465;-69
2022/11/04 01:57:59;;;;;;;6.87;5.27;;;14.60;54.50;;;;;;5100266;28;20035;-69
2022/11/04 02:00:25;;;;;;;7.35;4.57;;;14.60;45.70;;;;;;5109504;28;20375;-69
2022/11/04 02:03:07;;;;;;;5.68;4.50;;;14.50;40.80;;;;;;5083757;28;20039;-69
2022/11/04 02:05:33;;;;;;;6.95;5.20;;;14.60;47.40;;;;;;5109038;28;20048;-69
2022/11/04 02:08:02;;;;;;;6.38;5.60;;;14.60;43.80;;;;;;5111914;27;20028;-69
2022/11/04 02:10:29;;;;;;;7.60;6.03;;;14.70;43.80;;;;;;5091151;28;20076;-69
2022/11/04 02:12:58;;;;;;;5.30;4.80;;;14.70;35.10;;;;;;5111787;28;20040;-69
2022/11/04 02:15:52;;;;;;;5.60;5.10;;;14.60;30.70;;;;;;5109880;28;20046;-70
2022/11/04 02:18:36;;;;;;;5.88;5.32;;;14.60;37.60;;;;;;5101640;28;20024;-69
2022/11/04 02:21:23;;;;;;;8.73;6.37;;;14.60;34.70;;;;;;5110720;28;20031;-69
2022/11/04 02:24:04;;;;;;;8.80;6.53;;;14.30;40.50;;;;;;5093104;28;20337;-70
2022/11/04 02:26:48;;;;;;;8.07;6.18;;;14.40;51.70;;;;;;5086782;28;20047;-70
2022/11/04 02:29:41;;;;;;;6.43;3.93;;;14.40;99.90;;;;;;5110009;28;20138;-69
2022/11/04 02:32:28;;;;;;;3.72;3.35;;;14.30;99.90;;;;;;5101048;28;20365;-69
2022/11/04 02:35:00;;;;;;;3.20;2.90;;;14.20;99.90;;;;;;5110210;28;20039;-69
2022/11/04 02:37:49;;;;;;;7.15;3.72;;;14.30;99.90;;;;;;5111748;28;20138;-69
2022/11/04 02:40:40;;;;;;;3.75;3.20;;;14.40;99.90;;;;;;5099764;28;20488;-69
2022/11/04 02:43:35;;;;;;;3.60;3.25;;;14.40;99.90;;;;;;5111372;28;20028;-70
2022/11/04 02:46:06;;;;;;;3.38;2.50;;;14.40;99.90;;;;;;5096576;28;20046;-69
2022/11/04 02:48:41;;;;;;;3.15;2.58;;;14.20;99.90;;;;;;5103622;28;20022;-69
2022/11/04 02:51:19;;;;;;;2.22;1.80;;;14.30;99.90;;;;;;5100830;28;20032;-69
2022/11/04 02:54:06;;;;;;;2.40;1.40;;;14.00;99.90;;;;;;5100969;28;20111;-70
2022/11/04 02:56:37;;;;;;;1.92;1.33;;;14.00;99.90;;;;;;5093984;28;20397;-69
2022/11/04 02:59:13;;;;;;;1.25;1.15;;;13.90;99.90;;;;;;5098714;28;20046;-69
2022/11/04 03:01:42;;;;;;;1.55;1.20;;;13.90;99.90;;;;;;5106530;28;20030;-69
2022/11/04 03:04:14;;;;;;;1.60;0.95;;;14.10;99.90;;;;;;5103810;28;20022;-69
2022/11/04 03:06:46;;;;;;;1.15;0.85;;;13.80;99.90;;;;;;5095661;28;20122;-70
2022/11/04 03:09:14;;;;;;;1.40;1.02;;;13.70;99.90;;;;;;5098711;28;20028;-70
2022/11/04 03:11:44;;;;;;;0.73;0.73;;;13.90;99.90;;;;;;5107238;28;20483;-70
2022/11/04 03:14:17;;;;;;;0.70;0.43;;;13.90;99.90;;;;;;5091329;28;20058;-70
2022/11/04 03:16:49;;;;;;;0.68;0.30;;;13.50;99.90;;;;;;5096667;28;20117;-71
2022/11/04 03:19:56;;;;;;;2.53;0.40;;;13.50;99.90;;;;;;5106953;28;20433;-71
2022/11/04 03:22:28;;;;;;;0.45;0.28;;;13.60;99.90;;;;;;5068779;28;20374;-71
2022/11/04 03:24:54;;;;;;;0.30;0.20;;;13.60;99.90;;;;;;5067272;28;20052;-71
2022/11/04 03:27:42;;;;;;;0.45;0.20;;;13.60;99.90;;;;;;5093725;28;20060;-71
2022/11/04 03:30:12;;;;;;;0.20;0.10;;;13.30;99.90;;;;;;5114757;27;20019;-71
2022/11/04 03:32:49;;;;;;;1.25;0.40;;;13.40;99.90;;;;;;5115268;28;20484;-71
2022/11/04 03:35:58;;;;;;;0.10;0.10;;;13.40;99.90;;;;;;5104797;28;20032;-71
2022/11/04 03:38:24;;;;;;;0.15;0.00;;;12.90;99.90;;;;;;5103122;28;20039;-71
2022/11/04 03:40:50;;;;;;;0.15;0.00;;;13.20;99.90;;;;;;5112187;28;20046;-71
2022/11/04 03:43:26;;;;;;;0.00;0.00;;;13.00;99.90;;;;;;5113364;28;20019;-71
2022/11/04 03:45:53;;;;;;;0.05;0.00;;;13.00;99.90;;;;;;5110647;27;20031;-71
2022/11/04 03:48:19;;;;;;;0.00;0.00;;;13.00;99.90;;;;;;5098014;28;20032;-71
2022/11/04 03:50:47;;;;;;;0.10;0.00;;;12.80;99.90;;;;;;5098898;28;20020;-70
2022/11/04 03:53:16;;;;;;;0.08;0.08;;;12.60;99.90;;;;;;5112826;28;20027;-71
2022/11/04 03:55:53;;;;;;;0.00;0.00;;;12.70;99.90;;;;;;5098169;28;20518;-72
2022/11/04 03:58:25;;;;;;;0.00;0.00;;;12.30;99.90;;;;;;5100271;28;20081;-71
2022/11/04 04:01:35;;;;;;;0.20;0.00;;;12.10;99.90;;;;;;5104397;28;20034;-71
2022/11/04 04:04:14;;;;;;;0.15;0.10;;;12.10;99.90;;;;;;5093284;28;20028;-71
2022/11/04 04:06:43;;;;;;;1.65;0.20;;;12.00;99.90;;;;;;5103994;28;20031;-71
2022/11/04 04:09:25;;;;;;;0.10;0.00;;;12.10;99.90;;;;;;5082106;28;20058;-71
2022/11/04 04:12:12;;;;;;;0.22;0.00;;;12.40;99.90;;;;;;5114229;28;20028;-70
2022/11/04 04:14:48;;;;;;;0.30;0.03;;;12.50;99.90;;;;;;5106305;28;20027;-70
2022/11/04 04:17:20;;;;;;;0.17;0.10;;;12.50;99.90;;;;;;5107543;28;20392;-70
2022/11/04 04:20:14;;;;;;;0.10;0.00;;;12.00;99.90;;;;;;5094165;28;20480;-70
2022/11/04 04:22:46;;;;;;;1.05;0.10;;;12.30;99.90;;;;;;5093823;28;20048;-69
2022/11/04 04:28:00;;;;;;;0.03;0.03;;;11.90;99.90;;;;;;5094780;28;20082;-63
2022/11/04 04:30:26;;;;;;;0.98;0.05;;;12.00;99.90;;;;;;5094718;28;20051;-61
2022/11/04 04:32:55;;;;;;;0.28;0.00;;;11.70;99.90;;;;;;5095337;28;20016;-60
2022/11/04 04:35:40;;;;;;;0.10;0.10;;;11.80;99.90;;;;;;5101934;28;20035;-61
2022/11/04 04:46:48;;;;;;;0.10;0.00;;;12.10;99.90;;;;;;5107253;28;20062;-60
2022/11/04 04:49:14;;;;;;;0.10;0.00;;;12.10;99.90;;;;;;5099826;28;20049;-60
2022/11/04 04:51:46;;;;;;;0.00;0.00;;;12.00;99.90;;;;;;5108403;28;20038;-60
2022/11/04 04:54:12;;;;;;;0.82;0.10;;;11.80;99.90;;;;;;5104185;28;20116;-60
2022/11/04 04:56:37;;;;;;;0.75;0.10;;;11.80;99.90;;;;;;5109375;27;20059;-60
2022/11/04 04:59:03;;;;;;;0.00;0.00;;;11.80;99.90;;;;;;5104463;28;20024;-60
2022/11/04 05:01:29;;;;;;;0.30;0.10;;;11.60;99.90;;;;;;5110407;28;20031;-60
2022/11/04 05:03:55;;;;;;;0.10;0.10;;;11.50;99.90;;;;;;5111525;28;20027;-60
2022/11/04 05:06:20;;;;;;;0.47;0.30;;;11.70;99.90;;;;;;5111409;28;20479;-60
2022/11/04 05:08:46;;;;;;;0.10;0.00;;;12.00;99.90;;;;;;5099217;28;20027;-60
2022/11/04 05:11:11;;;;;;;0.00;0.00;;;11.70;99.90;;;;;;5111975;28;20404;-60
2022/11/04 05:13:37;;;;;;;0.08;0.00;;;12.00;99.90;;;;;;5112669;28;20041;-60
2022/11/04 05:16:05;;;;;;;2.00;0.25;;;11.80;99.90;;;;;;5112024;28;20456;-60
2022/11/04 05:18:31;;;;;;;1.58;0.10;;;12.00;99.90;;;;;;5112181;28;20093;-59
2022/11/04 05:20:57;;;;;;;0.20;0.10;;;12.00;99.90;;;;;;5103010;27;20419;-59
2022/11/04 05:23:22;;;;;;;4.97;0.13;;;11.90;99.90;;;;;;5106363;28;20042;-62
2022/11/04 05:25:48;;;;;;;0.20;0.10;;;11.90;99.90;;;;;;5104698;28;20043;-59
2022/11/04 05:28:13;;;;;;;0.20;0.08;;;11.50;99.90;;;;;;5105862;27;20020;-60
2022/11/04 05:30:39;;;;;;;0.28;0.10;;;11.80;99.90;;;;;;5084634;27;20066;-60
2022/11/04 05:33:06;;;;;;;1.38;0.10;;;11.60;99.90;;;;;;5106696;27;20032;-59
2022/11/04 05:35:32;;;;;;;0.52;0.25;;;11.70;99.90;;;;;;5106867;27;20453;-59
2022/11/04 05:37:58;;;;;;;0.17;0.10;;;11.70;99.90;;;;;;5102872;28;20046;-57
2022/11/04 05:40:24;;;;;;;1.17;0.20;;;11.70;99.90;;;;;;5083384;28;20023;-59
2022/11/04 05:42:49;;;;;;;1.85;0.20;;;11.50;99.90;;;;;;5105996;27;20447;-59
2022/11/04 05:45:15;;;;;;;0.00;0.00;;;11.30;99.90;;;;;;5105460;28;20321;-60
2022/11/04 05:47:41;;;;;;;0.00;0.00;;;11.70;99.90;;;;;;5105174;28;20032;-59
2022/11/04 05:50:07;;;;;;;0.47;0.08;;;11.50;99.90;;;;;;5105750;28;20552;-60
2022/11/04 05:52:32;;;;;;;0.00;0.00;;;11.20;99.90;;;;;;5110215;28;20015;-60
2022/11/04 05:54:58;;;;;;;0.00;0.00;;;11.20;99.90;;;;;;5111678;28;20035;-59
2022/11/04 05:57:23;;;;;;;0.20;0.10;;;11.20;99.90;;;;;;5111562;28;20160;-60
2022/11/04 05:59:49;;;;;;;0.00;0.00;;;11.00;99.90;;;;;;5112493;28;20023;-59
2022/11/04 06:02:14;;;;;;;0.52;0.10;;;11.10;99.90;;;;;;5109704;28;20035;-59
2022/11/04 06:04:40;;;;;;;0.85;0.00;;;11.00;99.90;;;;;;5098751;28;20044;-58
2022/11/04 06:07:06;;;;;;;0.17;0.03;;;11.10;99.90;;;;;;5108632;28;20111;-59
2022/11/04 06:09:37;;;;;;;0.00;0.00;;;11.00;99.90;;;;;;5094028;28;20024;-58
2022/11/04 06:12:14;;;;;;;0.10;0.10;;;10.90;99.90;;;;;;5111266;28;20077;-59
2022/11/04 06:14:43;;;;;;;0.20;0.10;;;10.70;99.90;;;;;;5106228;28;20058;-58
2022/11/04 06:17:20;;;;;;;0.75;0.10;;;10.90;99.90;;;;;;5102839;28;20046;-59
2022/11/04 06:19:46;;;;;;;0.20;0.10;;;10.70;99.90;;;;;;5110584;28;20027;-59
2022/11/04 06:22:14;;;;;;;0.20;0.10;;;11.00;99.90;;;;;;5092009;28;20046;-60
2022/11/04 06:24:40;;;;;;;1.15;0.22;;;10.80;99.90;;;;;;5111949;28;20099;-58
2022/11/04 06:27:06;;;;;;;0.10;0.00;;;10.90;99.90;;;;;;5110080;28;20039;-57
2022/11/04 06:29:31;;;;;;;0.80;0.17;;;10.90;99.90;;;;;;5103139;28;20026;-58
2022/11/04 06:31:57;;;;;;;0.82;0.10;;;11.00;99.90;;;;;;5109682;28;20019;-57
2022/11/04 06:34:23;;;;;;;1.52;0.20;;;10.70;99.90;;;;;;5110674;28;20488;-57
2022/11/04 06:36:49;;;;;;;0.08;0.08;;;10.90;99.90;;;;;;5111359;28;20031;-58
2022/11/04 06:39:15;;;;;;;1.10;0.10;;;11.00;99.90;;;;;;5111946;28;20063;-57
2022/11/04 06:41:41;;;;;;;0.40;0.10;;;11.00;99.90;;;;;;5109938;28;20146;-58
2022/11/04 06:44:07;;;;;;;0.40;0.00;;;11.00;99.90;;;;;;5110930;28;20059;-57
2022/11/04 06:46:39;;;;;;;0.30;0.00;;;11.00;99.90;;;;;;5109530;28;20031;-56
2022/11/04 06:49:08;;;;;;;1.77;0.28;;;11.20;99.90;;;;;;5100260;28;20047;-55
2022/11/04 06:51:34;;;;;;;0.22;0.08;;;11.30;99.90;;;;;;5105677;28;20024;-57
2022/11/04 06:54:00;;;;;;;0.55;0.10;;;10.90;99.90;;;;;;5087411;28;20072;-59
2022/11/04 06:56:25;;;;;;;0.45;0.10;;;10.90;99.90;;;;;;5102355;28;20126;-56
2022/11/04 06:58:52;;;;;;;0.38;0.10;;;11.10;99.90;;;;;;5102509;28;20035;-56
2022/11/04 07:01:19;;;;;;;0.68;0.17;;;11.20;99.90;;;;;;5107424;27;20148;-56
2022/11/04 07:03:49;;;;;;;0.35;0.10;;;11.30;99.90;;;;;;5110703;27;20057;-56
2022/11/04 07:06:15;;;;;;;1.27;0.17;;;11.20;99.90;;;;;;5107202;27;20041;-53
2022/11/04 07:08:40;;;;;;;0.32;0.10;;;11.10;99.90;;;;;;5108949;27;20039;-54
2022/11/04 07:11:06;;;;;;;1.38;0.40;;;11.20;99.90;;;;;;5109575;27;20448;-56
2022/11/04 07:13:32;;;;;;;1.92;0.10;;;11.20;99.90;;;;;;5107678;27;20152;-57
2022/11/04 07:15:58;;;;;;;2.00;0.20;;;11.20;99.90;;;;;;5106984;27;20072;-57
2022/11/04 07:18:24;;;;;;;2.88;1.20;;;11.10;99.90;;;;;;5107808;28;20098;-57
2022/11/04 07:20:50;;;;;;;0.38;0.20;;;11.20;99.90;;;;;;5108024;28;21012;-56
2022/11/04 07:23:16;;;;;;;1.35;0.35;;;11.20;99.90;;;;;;5107412;28;20186;-55
2022/11/04 07:25:42;;;;;;;1.92;0.93;;;11.10;99.90;;;;;;5115098;28;20464;-55
2022/11/04 07:28:08;;;;;;;1.50;0.30;;;11.20;99.90;;;;;;5107946;28;20027;-56
2022/11/04 07:30:34;;;;;;;0.95;0.45;;;11.20;99.90;;;;;;5115257;28;20921;-55
2022/11/04 07:32:59;;;;;;;1.30;0.25;;;11.50;99.90;;;;;;5114463;28;20026;-56
2022/11/04 07:35:25;;;;;;;0.50;0.30;;;11.50;99.90;;;;;;5114953;28;20499;-54
2022/11/04 07:37:50;;;;;;;1.30;0.47;;;11.60;99.90;;;;;;5114102;28;20054;-54
2022/11/04 07:40:16;;;;;;;1.45;0.63;;;11.60;99.90;;;;;;5115462;28;20035;-52
2022/11/04 07:42:42;;;;;;;0.30;0.20;;;11.60;99.90;;;;;;5113905;27;20127;-56
2022/11/04 07:45:07;;;;;;;0.82;0.65;;;11.50;99.90;;;;;;5114711;28;20067;-57
2022/11/04 07:47:33;;;;;;;2.30;0.68;;;11.50;99.90;;;;;;5112862;27;20027;-57
2022/11/04 07:49:59;;;;;;;1.58;0.63;;;11.50;99.90;;;;;;5115033;28;20028;-56
2022/11/04 07:52:24;;;;;;;0.95;0.50;;;11.50;99.90;;;;;;5114170;27;20032;-56
2022/11/04 07:54:50;;;;;;;1.05;0.50;;;11.60;99.90;;;;;;5112592;28;20455;-56
2022/11/04 07:57:16;;;;;;;1.67;0.45;;;11.60;99.90;;;;;;5114257;27;20111;-56
2022/11/04 07:59:41;;;;;;;3.15;0.80;;;11.60;99.90;;;;;;5114305;28;20116;-57
2022/11/04 08:02:09;;;;;;;1.95;0.60;;;11.80;99.90;;;;;;5106543;27;20031;-61
2022/11/04 08:04:34;;;;;;;1.25;0.40;;;11.70;99.90;;;;;;5111059;28;20452;-72
2022/11/04 08:07:00;;;;;;;1.35;0.50;;;11.80;99.90;;;;;;5110353;27;20059;-72
2022/11/04 08:09:26;;;;;;;1.98;0.43;;;11.90;99.90;;;;;;5114684;28;20311;-72
2022/11/04 08:11:52;;;;;;;2.13;0.65;;;11.80;99.90;;;;;;5107826;28;20046;-72
2022/11/04 08:14:17;;;;;;;1.15;0.43;;;11.90;99.90;;;;;;5112566;28;20448;-72
2022/11/04 08:16:43;;;;;;;2.10;0.60;;;11.90;99.90;;;;;;5112599;28;20077;-73
2022/11/04 08:19:08;;;;;;;1.80;0.55;;;12.00;99.90;;;;;;5114664;28;20020;-72
2022/11/04 08:21:34;;;;;;;2.03;0.60;;;12.10;99.90;;;;;;5113529;28;20373;-72
2022/11/04 08:24:02;;;;;;;2.00;0.50;;;12.10;99.90;;;;;;5112829;28;20091;-70
2022/11/04 08:26:28;;;;;;;1.77;0.40;;;12.10;99.90;;;;;;5113828;28;20031;-70
2022/11/04 08:28:54;;;;;;;1.75;0.50;;;12.10;99.90;;;;;;5113920;28;20188;-70
2022/11/04 08:31:24;;;;;;;4.15;1.00;;;12.20;99.90;;;;;;5113634;28;20089;-70
2022/11/04 08:33:50;;;;;;;3.47;0.98;;;12.10;99.90;;;;;;5099383;28;20035;-70
2022/11/04 08:36:19;;;;;;;3.47;0.50;;;12.20;99.90;;;;;;5095344;28;20025;-70
2022/11/04 08:38:46;;;;;;;2.63;0.80;;;12.30;92.50;;;;;;5108769;27;20171;-70
2022/11/04 08:41:13;;;;;;;3.72;0.85;;;12.30;26.40;;;;;;5108179;28;20048;-70
2022/11/04 08:43:39;;;;;;;0.95;0.40;;;12.40;10.00;;;;;;5074703;28;20023;-70
2022/11/04 08:46:07;;;;;;;5.00;0.60;;;12.50;1.00;;;;;;5104574;28;20120;-70
2022/11/04 08:48:34;;;;;;;1.70;0.60;;;12.50;7.80;;;;;;5108984;28;20095;-70
2022/11/04 08:51:01;;;;;;;3.58;0.63;;;12.50;5.00;;;;;;5111519;28;20034;-70
2022/11/04 08:53:27;;;;;;;1.92;0.60;;;12.60;2.80;;;;;;5111811;28;20023;-70
2022/11/04 08:55:53;;;;;;;1.77;0.98;;;12.60;2.40;;;;;;5101002;28;20131;-70
2022/11/04 08:58:19;;;;;;;1.80;0.88;;;12.70;1.20;;;;;;5097514;28;20086;-70
2022/11/04 09:00:45;;;;;;;1.55;0.65;;;12.80;1.00;;;;;;5097705;28;20020;-70
2022/11/04 09:03:11;;;;;;;1.83;0.60;;;12.70;1.00;;;;;;5103555;28;20161;-70
2022/11/04 09:05:43;;;;;;;2.17;0.65;;;12.80;1.00;;;;;;5075920;28;20032;-70
2022/11/04 09:14:53;;;;;;;3.28;1.50;;;13.00;1.00;;;;;;5109690;28;20027;-69
2022/11/04 09:17:19;;;;;;;0.40;0.38;;;13.00;1.00;;;;;;5112377;28;20472;-61
2022/11/04 09:19:45;;;;;;;5.03;1.17;;;13.10;1.00;;;;;;5104414;28;20116;-67
2022/11/04 09:22:10;;;;;;;2.05;0.40;;;13.00;1.00;;;;;;5106193;28;20176;-67
2022/11/04 09:24:36;;;;;;;4.13;0.57;;;13.10;1.00;;;;;;5111863;28;20040;-67
2022/11/04 09:27:03;;;;;;;2.58;0.50;;;13.10;1.00;;;;;;5112537;28;20150;-66
2022/11/04 09:29:32;;;;;;;0.40;0.30;;;13.10;1.00;;;;;;5113135;28;20058;-66
2022/11/04 09:31:58;;;;;;;0.77;0.10;;;13.20;1.00;;;;;;5101208;28;20023;-66
2022/11/04 09:34:24;;;;;;;2.15;0.50;;;13.30;1.00;;;;;;5094468;28;20031;-67
2022/11/04 09:36:49;;;;;;;2.00;0.57;;;13.30;1.00;;;;;;5111910;28;20028;-67
2022/11/04 09:39:16;;;;;;;5.63;0.63;;;13.30;1.00;;;;;;5112549;28;20039;-67
2022/11/04 09:41:57;;;;;;;2.33;1.02;;;13.40;1.00;;;;;;5112312;28;20059;-67
2022/11/04 09:44:44;;;;;;;6.90;1.02;;;13.40;1.00;;;;;;5112276;28;20030;-67
2022/11/04 09:47:12;;;;;;;4.57;0.70;;;13.30;1.00;;;;;;5111928;28;20063;-67
2022/11/04 09:49:43;;;;;;;0.57;0.43;;;13.40;1.00;;;;;;5110016;28;20027;-67
2022/11/04 09:52:20;;;;;;;1.40;0.75;;;13.50;1.00;;;;;;5109581;28;20038;-67
2022/11/04 09:55:10;;;;;;;2.60;0.60;;;13.40;1.00;;;;;;5094197;28;20090;-66
2022/11/04 09:57:35;;;;;;;2.95;0.82;;;13.50;1.00;;;;;;5104895;28;20039;-66
2022/11/04 10:00:01;;;;;;;4.18;0.52;;;13.50;1.00;;;;;;5094303;28;20500;-66
2022/11/04 10:02:52;;;;;;;1.42;0.60;;;13.50;1.00;;;;;;5110711;28;20377;-66
2022/11/04 10:05:44;;;;;;;2.78;0.65;;;13.60;1.00;;;;;;5112452;28;20035;-66
2022/11/04 10:08:36;;;;;;;2.10;0.70;;;13.60;1.00;;;;;;5101099;28;20549;-66
2022/11/04 10:11:12;;;;;;;1.65;0.38;;;13.70;1.00;;;;;;5076876;28;20035;-65
2022/11/04 10:13:47;;;;;;;0.45;0.30;;;13.80;1.00;;;;;;5111811;28;20051;-65
2022/11/04 10:16:22;;;;;;;1.75;0.85;;;13.80;1.00;;;;;;5108305;28;20077;-66
2022/11/04 10:18:56;;;;;;;;;;;13.80;1.00;;;;;;5110107;28;20026;-66
2022/11/04 10:21:37;;;;;;;1.25;0.57;;;13.70;1.00;;;;;;5111353;28;19998;-66
2022/11/04 10:24:16;;;;;;;1.55;0.17;;;13.90;1.00;;;;;;5111930;28;20102;-66
2022/11/04 10:27:04;;;;;;;2.50;0.63;;;13.90;1.00;;;;;;5092112;28;20129;-66
2022/11/04 10:29:36;;;;;;;1.50;0.40;;;14.00;1.00;;;;;;5111472;28;20024;-66
2022/11/04 10:32:10;;;;;;;0.35;0.22;;;14.00;1.00;;;;;;5111695;28;20031;-65
2022/11/04 10:34:45;;;;;;;0.70;0.50;;;14.00;1.00;;;;;;5111697;28;20492;-66
2022/11/04 10:37:11;;;;;;;1.58;0.60;;;14.00;1.00;;;;;;5111273;28;20031;-66
2022/11/04 10:39:42;;;;;;;1.20;0.45;;;14.20;1.00;;;;;;5112057;28;20028;-65
2022/11/04 10:42:15;;;;;;;1.02;0.52;;;14.30;1.00;;;;;;5111410;28;20489;-65
2022/11/04 10:44:41;;;;;;;1.65;0.45;;;14.30;1.00;;;;;;5111213;28;20133;-65
2022/11/04 10:47:43;;;;;;;3.08;0.57;;;14.40;1.00;;;;;;5109479;28;20114;-65
2022/11/04 10:50:12;;;;;;;1.50;0.40;;;14.40;1.00;;;;;;5110767;28;20476;-65
2022/11/04 10:52:38;;;;;;;0.70;0.50;;;14.50;1.00;;;;;;5110785;28;20484;-65
2022/11/04 10:55:32;;;;;;;1.58;0.60;;;14.70;1.00;;;;;;5111595;28;20052;-64
2022/11/04 10:58:00;;;;;;;0.57;0.30;;;14.60;1.00;;;;;;5109394;28;20063;-64
2022/11/04 11:00:40;;;;;;;0.90;0.30;;;14.50;1.00;;;;;;5111871;28;20020;-64
2022/11/04 11:03:33;;;;;;;1.42;0.22;;;14.70;1.00;;;;;;5110214;28;20040;-65
2022/11/04 11:06:22;;;;;;;2.50;0.43;;;14.80;1.00;;;;;;5106746;28;20051;-65
2022/11/04 11:08:49;;;;;;;0.50;0.30;;;14.80;1.00;;;;;;5110873;28;20114;-65
2022/11/04 11:11:33;;;;;;;0.68;0.50;;;14.80;1.00;;;;;;5111671;28;20484;-64
2022/11/04 11:13:58;;;;;;;1.63;1.05;;;14.80;1.00;;;;;;5111531;28;20366;-65
2022/11/04 11:16:26;;;;;;;2.95;0.43;;;14.70;1.00;;;;;;5110731;28;20023;-65
2022/11/04 11:19:10;;;;;;;2.03;0.43;;;14.90;1.00;;;;;;5110647;28;20549;-65
2022/11/04 11:21:50;;;;;;;1.02;0.47;;;14.80;1.00;;;;;;5110744;28;20012;-64
2022/11/04 11:24:21;;;;;;;0.30;0.20;;;15.00;1.00;;;;;;5108432;28;20023;-64
2022/11/04 11:26:51;;;;;;;1.77;0.35;;;15.10;1.00;;;;;;5099706;28;20333;-65
2022/11/04 11:29:21;;;;;;;0.32;0.28;;;15.10;1.00;;;;;;5110029;28;20118;-65
2022/11/04 11:31:47;;;;;;;1.08;0.28;;;15.10;1.00;;;;;;5098330;28;20042;-64
2022/11/04 11:34:25;;;;;;;0.75;0.20;;;15.10;1.00;;;;;;5111328;28;20027;-65
2022/11/04 11:36:53;;;;;;;0.40;0.30;;;15.10;1.00;;;;;;5097526;28;20431;-64
2022/11/04 11:39:21;;;;;;;1.10;0.20;;;15.10;1.00;;;;;;5104171;28;20027;-64
2022/11/04 11:42:15;;;;;;;1.00;0.60;;;15.20;1.00;;;;;;5100268;28;20031;-64
2022/11/04 11:44:55;;;;;;;0.88;0.30;;;15.30;1.00;;;;;;5107049;28;20067;-64
2022/11/04 11:47:21;;;;;;;0.90;0.20;;;15.30;1.00;;;;;;5091448;28;20745;-64
2022/11/04 11:50:12;;;;;;;0.45;0.30;;;15.20;1.00;;;;;;5087491;28;20062;-64
2022/11/04 11:52:38;;;;;;;0.20;0.20;;;15.30;1.00;;;;;;5098996;28;20184;-64
2022/11/04 11:55:06;;;;;;;0.65;0.28;;;15.30;1.00;;;;;;5103871;28;20097;-64
2022/11/04 11:57:38;;;;;;;0.30;0.20;;;15.40;1.00;;;;;;5097696;28;20019;-64
2022/11/04 12:00:09;;;;;;;0.20;0.10;;;15.30;1.00;;;;;;5096506;28;20039;-64
2022/11/04 12:02:45;;;;;;;0.38;0.20;;;15.40;1.00;;;;;;5080809;28;20369;-64
2022/11/04 12:05:13;;;;;;;0.45;0.30;;;15.50;1.00;;;;;;5094763;28;20084;-64
2022/11/04 12:07:50;;;;;;;1.58;0.40;;;15.50;1.00;;;;;;5104617;28;20031;-64
2022/11/04 12:10:22;;;;;;;1.67;0.30;;;15.40;1.00;;;;;;5094464;28;20478;-64
2022/11/04 12:13:14;;;;;;;1.05;0.50;;;15.50;1.00;;;;;;5096313;28;20481;-64
2022/11/04 12:15:39;;;;;;;0.57;0.30;;;15.60;1.00;;;;;;5094526;28;20493;-64
2022/11/04 12:18:38;;;;;;;0.75;0.30;;;15.70;1.00;;;;;;5097164;28;20028;-63
2022/11/04 12:21:20;;;;;;;0.68;0.40;;;15.60;1.00;;;;;;5094269;28;20545;-63
2022/11/04 12:24:16;;;;;;;1.77;0.52;;;15.70;1.00;;;;;;5097923;28;20028;-63
2022/11/04 12:26:58;;;;;;;0.60;0.57;;;15.70;1.00;;;;;;5102219;28;20408;-63
2022/11/04 12:29:49;;;;;;;0.95;0.50;;;15.70;1.00;;;;;;5112798;28;20027;-63
2022/11/04 12:32:40;;;;;;;0.50;0.30;;;15.70;1.00;;;;;;5106035;28;20032;-63
2022/11/04 12:35:17;;;;;;;4.80;0.70;;;15.70;1.00;;;;;;5100999;28;20028;-63
2022/11/04 12:37:55;;;;;;;0.98;0.63;;;15.80;1.00;;;;;;5114485;28;20118;-63
2022/11/04 12:40:27;;;;;;;0.93;0.80;;;15.80;1.00;;;;;;5112998;28;20487;-63
2022/11/04 12:43:06;;;;;;;1.70;0.55;;;15.80;1.00;;;;;;5114575;28;20334;-63
2022/11/04 12:45:47;;;;;;;1.05;0.60;;;15.80;1.00;;;;;;5111972;28;20042;-63
2022/11/04 12:48:35;;;;;;;1.42;0.60;;;15.80;1.00;;;;;;5113946;28;20094;-63
2022/11/04 12:51:13;;;;;;;0.40;0.40;;;15.80;1.00;;;;;;5113040;28;20171;-63
2022/11/04 12:53:47;;;;;;;4.20;0.45;;;15.80;1.00;;;;;;5099828;28;20023;-63
2022/11/04 12:56:19;;;;;;;1.27;0.32;;;15.90;1.00;;;;;;5112768;28;20035;-63
2022/11/04 12:59:07;;;;;;;2.92;0.50;;;15.90;1.00;;;;;;5113805;28;20100;-63
2022/11/04 13:01:45;;;;;;;1.65;0.30;;;15.80;1.00;;;;;;5113076;28;20034;-63
2022/11/04 13:04:22;;;;;;;1.70;0.40;;;15.90;1.00;;;;;;5113929;28;20023;-63
2022/11/04 13:06:50;;;;;;;1.88;0.60;;;15.90;1.00;;;;;;5113232;28;20514;-63
2022/11/04 13:09:21;;;;;;;2.08;0.73;;;15.90;1.00;;;;;;5094606;28;20043;-63
2022/11/04 13:11:54;;;;;;;0.85;0.63;;;15.80;1.00;;;;;;5079790;28;20346;-62
2022/11/04 13:14:32;;;;;;;0.52;0.52;;;16.00;1.00;;;;;;5095362;28;20051;-62
2022/11/04 13:17:02;;;;;;;1.25;0.35;;;16.00;1.00;;;;;;5110193;28;20380;-63
2022/11/04 13:19:37;;;;;;;1.13;0.30;;;16.00;1.00;;;;;;5112992;28;20030;-62
2022/11/04 13:22:10;;;;;;;2.08;0.30;;;16.00;1.00;;;;;;5112334;28;20499;-62
2022/11/04 13:24:50;;;;;;;1.98;0.50;;;16.00;1.00;;;;;;5091217;28;20421;-63
2022/11/04 13:27:20;;;;;;;1.83;0.38;;;16.00;1.00;;;;;;5109907;28;20031;-62
2022/11/04 13:29:49;;;;;;;2.83;0.30;;;16.10;1.00;;;;;;5108497;28;20479;-62
2022/11/04 13:32:47;;;;;;;1.80;0.47;;;16.00;1.00;;;;;;5104848;28;20573;-62
2022/11/04 13:35:30;;;;;;;0.73;0.50;;;16.00;1.00;;;;;;5100210;28;20310;-62
2022/11/04 13:38:12;;;;;;;0.55;0.50;;;16.00;1.00;;;;;;5098811;28;20024;-62
2022/11/04 13:41:15;;;;;;;0.98;0.30;;;16.00;1.00;;;;;;5112505;28;20027;-62
2022/11/04 13:43:49;;;;;;;1.65;0.65;;;16.00;1.00;;;;;;5101668;28;20031;-62
2022/11/04 13:46:19;;;;;;;1.48;0.60;;;15.90;1.00;;;;;;5112056;28;20038;-61
2022/11/04 13:49:17;;;;;;;1.95;0.60;;;15.90;1.00;;;;;;5094485;28;20077;-61
2022/11/04 13:51:44;;;;;;;2.13;0.35;;;16.00;1.00;;;;;;5111887;28;20024;-61